sensor_id;sensor_type;location;lat;lon;timestamp;P1;durP1;ratioP1;P2;durP2;ratioP2
55559;SDS011;41414;53.250;6.514;2022-11-21T00:01:20;34.55;;;20.08;;
55559;SDS011;41414;53.250;6.514;2022-11-21T00:03:48;34.50;;;20.30;;
55559;SDS011;41414;53.250;6.514;2022-11-21T00:06:15;33.65;;;21.25;;
55559;SDS011;41414;53.250;6.514;2022-11-21T00:08:41;34.80;;;21.98;;
55559;SDS011;41414;53.250;6.514;2022-11-21T00:11:07;37.15;;;21.98;;
55559;SDS011;41414;53.250;6.514;2022-11-21T00:13:33;34.92;;;22.30;;
55559;SDS011;41414;53.250;6.514;2022-11-21T00:16:03;36.20;;;22.70;;
55559;SDS011;41414;53.250;6.514;2022-11-21T00:18:30;36.03;;;22.27;;
55559;SDS011;41414;53.250;6.514;2022-11-21T00:20:56;35.03;;;21.38;;
55559;SDS011;41414;53.250;6.514;2022-11-21T00:23:27;37.35;;;22.15;;
55559;SDS011;41414;53.250;6.514;2022-11-21T00:25:53;35.00;;;22.17;;
55559;SDS011;41414;53.250;6.514;2022-11-21T00:28:19;35.20;;;21.85;;
55559;SDS011;41414;53.250;6.514;2022-11-21T00:30:44;36.40;;;21.13;;
55559;SDS011;41414;53.250;6.514;2022-11-21T00:33:10;36.53;;;22.17;;
55559;SDS011;41414;53.250;6.514;2022-11-21T00:35:36;32.83;;;20.58;;
55559;SDS011;41414;53.250;6.514;2022-11-21T00:38:02;35.40;;;21.20;;
55559;SDS011;41414;53.250;6.514;2022-11-21T00:40:27;35.65;;;21.80;;
55559;SDS011;41414;53.250;6.514;2022-11-21T00:42:53;29.17;;;18.27;;
55559;SDS011;41414;53.250;6.514;2022-11-21T00:45:19;31.52;;;19.50;;
55559;SDS011;41414;53.250;6.514;2022-11-21T00:47:45;30.38;;;18.95;;
55559;SDS011;41414;53.250;6.514;2022-11-21T00:50:11;31.27;;;20.00;;
55559;SDS011;41414;53.250;6.514;2022-11-21T00:52:37;32.92;;;20.05;;
55559;SDS011;41414;53.250;6.514;2022-11-21T00:55:02;32.20;;;21.75;;
55559;SDS011;41414;53.250;6.514;2022-11-21T00:57:28;37.33;;;22.35;;
55559;SDS011;41414;53.250;6.514;2022-11-21T00:59:54;38.00;;;22.77;;
55559;SDS011;41414;53.250;6.514;2022-11-21T01:02:20;35.38;;;21.17;;
55559;SDS011;41414;53.250;6.514;2022-11-21T01:04:46;36.38;;;23.65;;
55559;SDS011;41414;53.250;6.514;2022-11-21T01:07:12;37.15;;;23.35;;
55559;SDS011;41414;53.250;6.514;2022-11-21T01:09:39;33.97;;;22.17;;
55559;SDS011;41414;53.250;6.514;2022-11-21T01:12:04;33.30;;;20.35;;
55559;SDS011;41414;53.250;6.514;2022-11-21T01:14:30;34.10;;;20.92;;
55559;SDS011;41414;53.250;6.514;2022-11-21T01:16:56;36.88;;;22.05;;
55559;SDS011;41414;53.250;6.514;2022-11-21T01:19:22;35.50;;;22.77;;
55559;SDS011;41414;53.250;6.514;2022-11-21T01:21:48;33.30;;;21.33;;
55559;SDS011;41414;53.250;6.514;2022-11-21T01:24:13;39.65;;;22.20;;
55559;SDS011;41414;53.250;6.514;2022-11-21T01:26:39;35.30;;;22.65;;
55559;SDS011;41414;53.250;6.514;2022-11-21T01:29:05;35.42;;;21.38;;
55559;SDS011;41414;53.250;6.514;2022-11-21T01:31:32;32.90;;;19.95;;
55559;SDS011;41414;53.250;6.514;2022-11-21T01:33:59;37.78;;;22.52;;
55559;SDS011;41414;53.250;6.514;2022-11-21T01:36:26;38.20;;;22.60;;
55559;SDS011;41414;53.250;6.514;2022-11-21T01:38:54;38.22;;;22.92;;
55559;SDS011;41414;53.250;6.514;2022-11-21T01:41:23;35.00;;;22.00;;
55559;SDS011;41414;53.250;6.514;2022-11-21T01:43:54;37.30;;;21.65;;
55559;SDS011;41414;53.250;6.514;2022-11-21T01:46:20;30.33;;;19.00;;
55559;SDS011;41414;53.250;6.514;2022-11-21T01:48:49;34.75;;;21.05;;
55559;SDS011;41414;53.250;6.514;2022-11-21T01:51:24;34.83;;;20.65;;
55559;SDS011;41414;53.250;6.514;2022-11-21T01:53:53;31.27;;;20.20;;
55559;SDS011;41414;53.250;6.514;2022-11-21T01:56:40;33.65;;;20.08;;
55559;SDS011;41414;53.250;6.514;2022-11-21T01:59:11;37.50;;;21.88;;
55559;SDS011;41414;53.250;6.514;2022-11-21T02:01:43;36.33;;;20.58;;
55559;SDS011;41414;53.250;6.514;2022-11-21T02:04:11;35.17;;;20.83;;
55559;SDS011;41414;53.250;6.514;2022-11-21T02:06:37;33.78;;;19.60;;
55559;SDS011;41414;53.250;6.514;2022-11-21T02:09:03;35.55;;;21.58;;
55559;SDS011;41414;53.250;6.514;2022-11-21T02:11:38;33.25;;;19.92;;
55559;SDS011;41414;53.250;6.514;2022-11-21T02:14:09;32.13;;;19.80;;
55559;SDS011;41414;53.250;6.514;2022-11-21T02:16:36;31.95;;;20.25;;
55559;SDS011;41414;53.250;6.514;2022-11-21T02:19:02;39.28;;;22.95;;
55559;SDS011;41414;53.250;6.514;2022-11-21T02:21:37;39.67;;;22.17;;
55559;SDS011;41414;53.250;6.514;2022-11-21T02:26:54;38.22;;;23.38;;
55559;SDS011;41414;53.250;6.514;2022-11-21T02:29:20;35.50;;;21.75;;
55559;SDS011;41414;53.250;6.514;2022-11-21T02:31:46;36.22;;;21.55;;
55559;SDS011;41414;53.250;6.514;2022-11-21T02:34:12;34.85;;;20.55;;
55559;SDS011;41414;53.250;6.514;2022-11-21T02:36:46;32.95;;;20.17;;
55559;SDS011;41414;53.250;6.514;2022-11-21T02:39:15;36.13;;;21.73;;
55559;SDS011;41414;53.250;6.514;2022-11-21T02:41:50;36.50;;;22.17;;
55559;SDS011;41414;53.250;6.514;2022-11-21T02:44:23;35.42;;;20.23;;
55559;SDS011;41414;53.250;6.514;2022-11-21T02:46:55;37.17;;;22.25;;
55559;SDS011;41414;53.250;6.514;2022-11-21T02:49:23;36.00;;;21.35;;
55559;SDS011;41414;53.250;6.514;2022-11-21T02:52:06;35.58;;;21.55;;
55559;SDS011;41414;53.250;6.514;2022-11-21T02:54:32;38.05;;;23.48;;
55559;SDS011;41414;53.250;6.514;2022-11-21T02:56:58;43.90;;;23.92;;
55559;SDS011;41414;53.250;6.514;2022-11-21T02:59:23;40.30;;;23.58;;
55559;SDS011;41414;53.250;6.514;2022-11-21T03:01:49;39.80;;;23.90;;
55559;SDS011;41414;53.250;6.514;2022-11-21T03:04:15;42.58;;;23.40;;
55559;SDS011;41414;53.250;6.514;2022-11-21T03:06:41;40.97;;;23.67;;
55559;SDS011;41414;53.250;6.514;2022-11-21T03:09:07;37.90;;;21.88;;
55559;SDS011;41414;53.250;6.514;2022-11-21T03:11:32;36.55;;;22.65;;
55559;SDS011;41414;53.250;6.514;2022-11-21T03:13:58;38.92;;;21.63;;
55559;SDS011;41414;53.250;6.514;2022-11-21T03:16:24;39.20;;;22.15;;
55559;SDS011;41414;53.250;6.514;2022-11-21T03:18:50;39.17;;;23.08;;
55559;SDS011;41414;53.250;6.514;2022-11-21T03:21:16;38.70;;;22.98;;
55559;SDS011;41414;53.250;6.514;2022-11-21T03:23:41;41.45;;;25.00;;
55559;SDS011;41414;53.250;6.514;2022-11-21T03:26:07;39.22;;;24.02;;
55559;SDS011;41414;53.250;6.514;2022-11-21T03:28:33;44.63;;;24.55;;
55559;SDS011;41414;53.250;6.514;2022-11-21T03:30:59;43.60;;;25.33;;
55559;SDS011;41414;53.250;6.514;2022-11-21T03:33:25;48.45;;;28.23;;
55559;SDS011;41414;53.250;6.514;2022-11-21T03:35:50;51.67;;;28.73;;
55559;SDS011;41414;53.250;6.514;2022-11-21T03:38:16;56.88;;;29.48;;
55559;SDS011;41414;53.250;6.514;2022-11-21T03:40:42;53.15;;;29.80;;
55559;SDS011;41414;53.250;6.514;2022-11-21T03:43:08;50.63;;;30.63;;
55559;SDS011;41414;53.250;6.514;2022-11-21T03:45:33;49.75;;;29.58;;
55559;SDS011;41414;53.250;6.514;2022-11-21T03:48:00;50.70;;;29.13;;
55559;SDS011;41414;53.250;6.514;2022-11-21T03:50:25;49.67;;;28.08;;
55559;SDS011;41414;53.250;6.514;2022-11-21T03:52:51;51.72;;;29.27;;
55559;SDS011;41414;53.250;6.514;2022-11-21T03:55:17;52.35;;;28.35;;
55559;SDS011;41414;53.250;6.514;2022-11-21T03:57:43;59.15;;;31.73;;
55559;SDS011;41414;53.250;6.514;2022-11-21T04:00:09;49.17;;;27.85;;
55559;SDS011;41414;53.250;6.514;2022-11-21T04:02:35;50.45;;;29.27;;
55559;SDS011;41414;53.250;6.514;2022-11-21T04:05:01;46.35;;;27.50;;
55559;SDS011;41414;53.250;6.514;2022-11-21T04:07:27;47.30;;;26.88;;
55559;SDS011;41414;53.250;6.514;2022-11-21T04:09:54;49.00;;;27.35;;
55559;SDS011;41414;53.250;6.514;2022-11-21T04:12:19;46.25;;;26.17;;
55559;SDS011;41414;53.250;6.514;2022-11-21T04:14:45;46.85;;;26.50;;
55559;SDS011;41414;53.250;6.514;2022-11-21T04:17:11;45.60;;;28.27;;
55559;SDS011;41414;53.250;6.514;2022-11-21T04:19:37;55.72;;;30.27;;
55559;SDS011;41414;53.250;6.514;2022-11-21T04:22:03;53.38;;;29.48;;
55559;SDS011;41414;53.250;6.514;2022-11-21T04:24:28;49.22;;;29.75;;
55559;SDS011;41414;53.250;6.514;2022-11-21T04:26:54;59.22;;;32.75;;
55559;SDS011;41414;53.250;6.514;2022-11-21T04:29:20;58.60;;;34.28;;
55559;SDS011;41414;53.250;6.514;2022-11-21T04:31:46;64.47;;;35.13;;
55559;SDS011;41414;53.250;6.514;2022-11-21T04:34:12;61.92;;;33.60;;
55559;SDS011;41414;53.250;6.514;2022-11-21T04:36:37;67.97;;;37.50;;
55559;SDS011;41414;53.250;6.514;2022-11-21T04:39:03;62.83;;;34.72;;
55559;SDS011;41414;53.250;6.514;2022-11-21T04:41:29;61.90;;;35.83;;
55559;SDS011;41414;53.250;6.514;2022-11-21T04:43:55;64.13;;;35.15;;
55559;SDS011;41414;53.250;6.514;2022-11-21T04:46:20;65.22;;;35.42;;
55559;SDS011;41414;53.250;6.514;2022-11-21T04:48:46;63.60;;;35.17;;
55559;SDS011;41414;53.250;6.514;2022-11-21T04:51:12;55.80;;;30.75;;
55559;SDS011;41414;53.250;6.514;2022-11-21T04:53:38;53.72;;;32.95;;
55559;SDS011;41414;53.250;6.514;2022-11-21T04:56:04;55.60;;;32.30;;
55559;SDS011;41414;53.250;6.514;2022-11-21T04:58:31;54.58;;;31.95;;
55559;SDS011;41414;53.250;6.514;2022-11-21T05:00:57;58.90;;;33.28;;
55559;SDS011;41414;53.250;6.514;2022-11-21T05:03:29;51.83;;;31.17;;
55559;SDS011;41414;53.250;6.514;2022-11-21T05:05:54;59.22;;;31.50;;
55559;SDS011;41414;53.250;6.514;2022-11-21T05:08:20;61.95;;;33.20;;
55559;SDS011;41414;53.250;6.514;2022-11-21T05:10:46;58.08;;;32.95;;
55559;SDS011;41414;53.250;6.514;2022-11-21T05:13:45;61.65;;;33.20;;
55559;SDS011;41414;53.250;6.514;2022-11-21T05:16:10;56.97;;;32.25;;
55559;SDS011;41414;53.250;6.514;2022-11-21T05:18:36;59.38;;;32.25;;
55559;SDS011;41414;53.250;6.514;2022-11-21T05:21:02;59.10;;;30.65;;
55559;SDS011;41414;53.250;6.514;2022-11-21T05:23:28;57.72;;;31.73;;
55559;SDS011;41414;53.250;6.514;2022-11-21T05:25:54;61.63;;;33.42;;
55559;SDS011;41414;53.250;6.514;2022-11-21T05:28:20;64.35;;;32.63;;
55559;SDS011;41414;53.250;6.514;2022-11-21T05:30:45;58.72;;;32.17;;
55559;SDS011;41414;53.250;6.514;2022-11-21T05:33:11;68.18;;;32.88;;
55559;SDS011;41414;53.250;6.514;2022-11-21T05:35:37;68.55;;;34.80;;
55559;SDS011;41414;53.250;6.514;2022-11-21T05:38:03;70.10;;;34.90;;
55559;SDS011;41414;53.250;6.514;2022-11-21T05:40:29;56.85;;;31.42;;
55559;SDS011;41414;53.250;6.514;2022-11-21T05:42:55;61.00;;;35.08;;
55559;SDS011;41414;53.250;6.514;2022-11-21T05:45:39;60.78;;;34.40;;
55559;SDS011;41414;53.250;6.514;2022-11-21T05:48:05;63.30;;;32.80;;
55559;SDS011;41414;53.250;6.514;2022-11-21T05:50:32;61.08;;;33.30;;
55559;SDS011;41414;53.250;6.514;2022-11-21T05:53:00;62.53;;;34.08;;
55559;SDS011;41414;53.250;6.514;2022-11-21T05:55:27;59.72;;;33.63;;
55559;SDS011;41414;53.250;6.514;2022-11-21T05:57:53;62.50;;;32.03;;
55559;SDS011;41414;53.250;6.514;2022-11-21T06:00:22;60.58;;;32.17;;
55559;SDS011;41414;53.250;6.514;2022-11-21T06:02:48;65.68;;;33.13;;
55559;SDS011;41414;53.250;6.514;2022-11-21T06:05:32;57.75;;;30.50;;
55559;SDS011;41414;53.250;6.514;2022-11-21T06:07:58;56.92;;;31.05;;
55559;SDS011;41414;53.250;6.514;2022-11-21T06:10:24;52.92;;;31.08;;
55559;SDS011;41414;53.250;6.514;2022-11-21T06:12:50;58.72;;;32.75;;
55559;SDS011;41414;53.250;6.514;2022-11-21T06:15:15;60.50;;;33.60;;
55559;SDS011;41414;53.250;6.514;2022-11-21T06:17:41;65.68;;;33.10;;
55559;SDS011;41414;53.250;6.514;2022-11-21T06:20:07;56.88;;;31.15;;
55559;SDS011;41414;53.250;6.514;2022-11-21T06:22:34;61.65;;;31.30;;
55559;SDS011;41414;53.250;6.514;2022-11-21T06:24:59;62.47;;;34.10;;
55559;SDS011;41414;53.250;6.514;2022-11-21T06:27:27;67.07;;;34.45;;
55559;SDS011;41414;53.250;6.514;2022-11-21T06:29:53;63.35;;;34.03;;
55559;SDS011;41414;53.250;6.514;2022-11-21T06:32:19;61.47;;;34.80;;
55559;SDS011;41414;53.250;6.514;2022-11-21T06:34:45;62.30;;;34.22;;
55559;SDS011;41414;53.250;6.514;2022-11-21T06:37:10;68.80;;;35.38;;
55559;SDS011;41414;53.250;6.514;2022-11-21T06:39:36;65.82;;;35.38;;
55559;SDS011;41414;53.250;6.514;2022-11-21T06:42:02;62.13;;;32.85;;
55559;SDS011;41414;53.250;6.514;2022-11-21T06:44:28;68.05;;;35.17;;
55559;SDS011;41414;53.250;6.514;2022-11-21T06:46:54;63.78;;;33.75;;
55559;SDS011;41414;53.250;6.514;2022-11-21T06:49:20;61.00;;;32.95;;
55559;SDS011;41414;53.250;6.514;2022-11-21T06:51:46;65.15;;;36.13;;
55559;SDS011;41414;53.250;6.514;2022-11-21T06:54:12;59.53;;;32.65;;
55559;SDS011;41414;53.250;6.514;2022-11-21T06:56:38;62.72;;;34.38;;
55559;SDS011;41414;53.250;6.514;2022-11-21T06:59:04;64.03;;;33.20;;
55559;SDS011;41414;53.250;6.514;2022-11-21T07:01:29;65.93;;;32.30;;
55559;SDS011;41414;53.250;6.514;2022-11-21T07:03:55;67.30;;;33.72;;
55559;SDS011;41414;53.250;6.514;2022-11-21T07:06:22;59.58;;;33.25;;
55559;SDS011;41414;53.250;6.514;2022-11-21T07:08:50;64.82;;;33.08;;
55559;SDS011;41414;53.250;6.514;2022-11-21T07:11:18;60.53;;;32.30;;
55559;SDS011;41414;53.250;6.514;2022-11-21T07:13:44;63.13;;;34.80;;
55559;SDS011;41414;53.250;6.514;2022-11-21T07:16:10;69.22;;;36.47;;
55559;SDS011;41414;53.250;6.514;2022-11-21T07:18:42;65.93;;;33.28;;
55559;SDS011;41414;53.250;6.514;2022-11-21T07:21:09;67.47;;;33.60;;
55559;SDS011;41414;53.250;6.514;2022-11-21T07:23:35;64.15;;;33.85;;
55559;SDS011;41414;53.250;6.514;2022-11-21T07:26:02;58.53;;;32.50;;
55559;SDS011;41414;53.250;6.514;2022-11-21T07:28:30;63.60;;;32.85;;
55559;SDS011;41414;53.250;6.514;2022-11-21T07:30:56;63.47;;;32.72;;
55559;SDS011;41414;53.250;6.514;2022-11-21T07:33:23;62.25;;;31.38;;
55559;SDS011;41414;53.250;6.514;2022-11-21T07:35:49;63.47;;;32.53;;
55559;SDS011;41414;53.250;6.514;2022-11-21T07:38:15;63.90;;;32.50;;
55559;SDS011;41414;53.250;6.514;2022-11-21T07:40:41;73.43;;;34.45;;
55559;SDS011;41414;53.250;6.514;2022-11-21T07:43:08;70.10;;;35.88;;
55559;SDS011;41414;53.250;6.514;2022-11-21T07:45:35;68.82;;;35.72;;
55559;SDS011;41414;53.250;6.514;2022-11-21T07:48:02;67.90;;;34.95;;
55559;SDS011;41414;53.250;6.514;2022-11-21T07:50:29;65.22;;;33.88;;
55559;SDS011;41414;53.250;6.514;2022-11-21T07:52:56;67.28;;;35.05;;
55559;SDS011;41414;53.250;6.514;2022-11-21T07:55:23;67.40;;;35.25;;
55559;SDS011;41414;53.250;6.514;2022-11-21T07:57:57;64.35;;;33.13;;
55559;SDS011;41414;53.250;6.514;2022-11-21T08:00:25;65.40;;;34.92;;
55559;SDS011;41414;53.250;6.514;2022-11-21T08:02:51;66.22;;;33.55;;
55559;SDS011;41414;53.250;6.514;2022-11-21T08:05:17;72.25;;;38.53;;
55559;SDS011;41414;53.250;6.514;2022-11-21T08:07:43;63.40;;;34.35;;
55559;SDS011;41414;53.250;6.514;2022-11-21T08:10:09;62.85;;;34.28;;
55559;SDS011;41414;53.250;6.514;2022-11-21T08:12:35;57.50;;;32.42;;
55559;SDS011;41414;53.250;6.514;2022-11-21T08:15:00;61.00;;;33.00;;
55559;SDS011;41414;53.250;6.514;2022-11-21T08:17:29;60.58;;;31.77;;
55559;SDS011;41414;53.250;6.514;2022-11-21T08:19:55;56.88;;;28.92;;
55559;SDS011;41414;53.250;6.514;2022-11-21T08:22:23;50.35;;;28.70;;
55559;SDS011;41414;53.250;6.514;2022-11-21T08:24:48;48.08;;;29.05;;
55559;SDS011;41414;53.250;6.514;2022-11-21T08:27:14;52.75;;;28.52;;
55559;SDS011;41414;53.250;6.514;2022-11-21T08:29:44;49.90;;;27.98;;
55559;SDS011;41414;53.250;6.514;2022-11-21T08:32:11;47.72;;;26.92;;
55559;SDS011;41414;53.250;6.514;2022-11-21T08:34:37;48.95;;;25.90;;
55559;SDS011;41414;53.250;6.514;2022-11-21T08:37:03;55.20;;;26.98;;
55559;SDS011;41414;53.250;6.514;2022-11-21T08:39:28;45.97;;;26.13;;
55559;SDS011;41414;53.250;6.514;2022-11-21T08:41:55;46.33;;;27.58;;
55559;SDS011;41414;53.250;6.514;2022-11-21T08:44:28;44.08;;;25.25;;
55559;SDS011;41414;53.250;6.514;2022-11-21T08:46:55;40.35;;;23.35;;
55559;SDS011;41414;53.250;6.514;2022-11-21T08:49:21;44.42;;;26.17;;
55559;SDS011;41414;53.250;6.514;2022-11-21T08:51:49;40.67;;;24.27;;
55559;SDS011;41414;53.250;6.514;2022-11-21T08:54:16;44.92;;;24.25;;
55559;SDS011;41414;53.250;6.514;2022-11-21T08:56:42;44.88;;;27.08;;
55559;SDS011;41414;53.250;6.514;2022-11-21T08:59:08;43.13;;;25.55;;
55559;SDS011;41414;53.250;6.514;2022-11-21T09:01:34;45.25;;;25.10;;
55559;SDS011;41414;53.250;6.514;2022-11-21T09:04:00;42.28;;;25.17;;
55559;SDS011;41414;53.250;6.514;2022-11-21T09:06:26;39.85;;;24.35;;
55559;SDS011;41414;53.250;6.514;2022-11-21T09:08:51;39.95;;;24.85;;
55559;SDS011;41414;53.250;6.514;2022-11-21T09:11:17;44.33;;;25.63;;
55559;SDS011;41414;53.250;6.514;2022-11-21T09:13:43;42.28;;;24.80;;
55559;SDS011;41414;53.250;6.514;2022-11-21T09:16:29;42.00;;;24.83;;
55559;SDS011;41414;53.250;6.514;2022-11-21T09:19:13;41.20;;;24.90;;
55559;SDS011;41414;53.250;6.514;2022-11-21T09:21:39;44.65;;;25.02;;
55559;SDS011;41414;53.250;6.514;2022-11-21T09:24:05;40.35;;;22.58;;
55559;SDS011;41414;53.250;6.514;2022-11-21T09:26:31;44.25;;;25.20;;
55559;SDS011;41414;53.250;6.514;2022-11-21T09:28:57;39.83;;;24.23;;
55559;SDS011;41414;53.250;6.514;2022-11-21T09:31:23;39.28;;;23.35;;
55559;SDS011;41414;53.250;6.514;2022-11-21T09:33:48;41.30;;;23.83;;
55559;SDS011;41414;53.250;6.514;2022-11-21T09:36:14;42.55;;;24.67;;
55559;SDS011;41414;53.250;6.514;2022-11-21T09:38:40;43.58;;;24.75;;
55559;SDS011;41414;53.250;6.514;2022-11-21T09:41:12;44.60;;;23.02;;
55559;SDS011;41414;53.250;6.514;2022-11-21T09:44:16;46.72;;;26.05;;
55559;SDS011;41414;53.250;6.514;2022-11-21T09:49:44;44.78;;;26.50;;
55559;SDS011;41414;53.250;6.514;2022-11-21T09:52:14;41.38;;;25.83;;
55559;SDS011;41414;53.250;6.514;2022-11-21T09:54:46;42.33;;;24.95;;
55559;SDS011;41414;53.250;6.514;2022-11-21T09:57:18;40.10;;;24.58;;
55559;SDS011;41414;53.250;6.514;2022-11-21T09:59:48;41.63;;;25.23;;
55559;SDS011;41414;53.250;6.514;2022-11-21T10:02:16;40.55;;;25.52;;
55559;SDS011;41414;53.250;6.514;2022-11-21T10:04:44;43.08;;;25.67;;
55559;SDS011;41414;53.250;6.514;2022-11-21T10:07:16;38.05;;;23.42;;
55559;SDS011;41414;53.250;6.514;2022-11-21T10:12:23;37.42;;;23.23;;
55559;SDS011;41414;53.250;6.514;2022-11-21T10:17:40;34.00;;;20.98;;
55559;SDS011;41414;53.250;6.514;2022-11-21T10:20:20;28.38;;;17.80;;
55559;SDS011;41414;53.250;6.514;2022-11-21T10:25:22;29.27;;;18.30;;
55559;SDS011;41414;53.250;6.514;2022-11-21T10:27:55;27.73;;;18.92;;
55559;SDS011;41414;53.250;6.514;2022-11-21T10:30:22;27.30;;;19.00;;
55559;SDS011;41414;53.250;6.514;2022-11-21T10:40:37;32.30;;;19.88;;
55559;SDS011;41414;53.250;6.514;2022-11-21T10:43:09;30.25;;;18.75;;
55559;SDS011;41414;53.250;6.514;2022-11-21T10:46:16;29.25;;;18.35;;
55559;SDS011;41414;53.250;6.514;2022-11-21T10:48:45;28.10;;;18.67;;
55559;SDS011;41414;53.250;6.514;2022-11-21T10:54:06;26.95;;;18.13;;
55559;SDS011;41414;53.250;6.514;2022-11-21T10:56:52;32.75;;;21.38;;
55559;SDS011;41414;53.250;6.514;2022-11-21T10:59:24;34.42;;;20.70;;
55559;SDS011;41414;53.250;6.514;2022-11-21T11:01:53;32.40;;;19.17;;
55559;SDS011;41414;53.250;6.514;2022-11-21T11:04:21;33.08;;;19.27;;
55559;SDS011;41414;53.250;6.514;2022-11-21T11:06:47;31.75;;;19.30;;
55559;SDS011;41414;53.250;6.514;2022-11-21T11:09:31;30.00;;;19.70;;
55559;SDS011;41414;53.250;6.514;2022-11-21T11:15:17;29.17;;;18.55;;
55559;SDS011;41414;53.250;6.514;2022-11-21T11:17:47;26.00;;;16.67;;
55559;SDS011;41414;53.250;6.514;2022-11-21T11:20:30;24.45;;;16.15;;
55559;SDS011;41414;53.250;6.514;2022-11-21T11:25:52;29.17;;;17.45;;
55559;SDS011;41414;53.250;6.514;2022-11-21T11:28:19;26.77;;;16.50;;
55559;SDS011;41414;53.250;6.514;2022-11-21T11:30:46;23.30;;;15.45;;
55559;SDS011;41414;53.250;6.514;2022-11-21T11:33:26;24.33;;;14.85;;
55559;SDS011;41414;53.250;6.514;2022-11-21T11:36:03;21.23;;;14.52;;
55559;SDS011;41414;53.250;6.514;2022-11-21T11:38:41;23.73;;;15.85;;
55559;SDS011;41414;53.250;6.514;2022-11-21T11:41:18;22.70;;;14.98;;
55559;SDS011;41414;53.250;6.514;2022-11-21T11:44:19;20.23;;;14.35;;
55559;SDS011;41414;53.250;6.514;2022-11-21T11:47:17;22.02;;;13.73;;
55559;SDS011;41414;53.250;6.514;2022-11-21T11:49:57;19.20;;;13.30;;
55559;SDS011;41414;53.250;6.514;2022-11-21T11:52:39;18.98;;;13.20;;
55559;SDS011;41414;53.250;6.514;2022-11-21T11:58:24;19.45;;;13.20;;
55559;SDS011;41414;53.250;6.514;2022-11-21T12:03:24;19.63;;;13.20;;
55559;SDS011;41414;53.250;6.514;2022-11-21T12:06:03;20.38;;;12.82;;
55559;SDS011;41414;53.250;6.514;2022-11-21T12:14:09;19.35;;;13.25;;
55559;SDS011;41414;53.250;6.514;2022-11-21T12:17:14;18.58;;;12.23;;
55559;SDS011;41414;53.250;6.514;2022-11-21T12:19:44;21.65;;;13.15;;
55559;SDS011;41414;53.250;6.514;2022-11-21T12:22:12;19.65;;;13.32;;
55559;SDS011;41414;53.250;6.514;2022-11-21T12:24:38;17.92;;;13.27;;
55559;SDS011;41414;53.250;6.514;2022-11-21T12:27:07;19.50;;;13.60;;
55559;SDS011;41414;53.250;6.514;2022-11-21T12:37:54;23.63;;;14.65;;
55559;SDS011;41414;53.250;6.514;2022-11-21T12:40:28;21.63;;;13.82;;
55559;SDS011;41414;53.250;6.514;2022-11-21T12:43:12;19.80;;;13.43;;
55559;SDS011;41414;53.250;6.514;2022-11-21T12:48:36;21.80;;;14.52;;
55559;SDS011;41414;53.250;6.514;2022-11-21T12:54:31;25.27;;;14.98;;
55559;SDS011;41414;53.250;6.514;2022-11-21T12:59:32;23.00;;;14.70;;
55559;SDS011;41414;53.250;6.514;2022-11-21T13:02:18;22.38;;;14.10;;
55559;SDS011;41414;53.250;6.514;2022-11-21T13:04:49;23.27;;;14.10;;
55559;SDS011;41414;53.250;6.514;2022-11-21T13:07:17;22.88;;;14.07;;
55559;SDS011;41414;53.250;6.514;2022-11-21T13:09:47;23.67;;;13.65;;
55559;SDS011;41414;53.250;6.514;2022-11-21T13:14:51;21.02;;;12.65;;
55559;SDS011;41414;53.250;6.514;2022-11-21T13:25:11;20.05;;;13.10;;
55559;SDS011;41414;53.250;6.514;2022-11-21T13:28:21;21.40;;;13.63;;
55559;SDS011;41414;53.250;6.514;2022-11-21T13:30:53;24.30;;;13.23;;
55559;SDS011;41414;53.250;6.514;2022-11-21T13:35:59;23.05;;;13.35;;
55559;SDS011;41414;53.250;6.514;2022-11-21T13:38:26;20.95;;;13.20;;
55559;SDS011;41414;53.250;6.514;2022-11-21T13:40:52;22.90;;;13.93;;
55559;SDS011;41414;53.250;6.514;2022-11-21T13:43:36;22.35;;;13.45;;
55559;SDS011;41414;53.250;6.514;2022-11-21T13:46:03;23.35;;;14.10;;
55559;SDS011;41414;53.250;6.514;2022-11-21T13:56:11;24.83;;;15.70;;
55559;SDS011;41414;53.250;6.514;2022-11-21T13:59:00;22.88;;;15.13;;
55559;SDS011;41414;53.250;6.514;2022-11-21T14:01:48;25.05;;;15.63;;
55559;SDS011;41414;53.250;6.514;2022-11-21T14:07:23;25.58;;;16.33;;
55559;SDS011;41414;53.250;6.514;2022-11-21T14:09:54;26.90;;;16.17;;
55559;SDS011;41414;53.250;6.514;2022-11-21T14:12:22;28.20;;;16.88;;
55559;SDS011;41414;53.250;6.514;2022-11-21T14:20:16;28.05;;;16.60;;
55559;SDS011;41414;53.250;6.514;2022-11-21T14:22:50;26.58;;;16.15;;
55559;SDS011;41414;53.250;6.514;2022-11-21T14:25:32;24.83;;;16.13;;
55559;SDS011;41414;53.250;6.514;2022-11-21T14:27:58;29.58;;;18.08;;
55559;SDS011;41414;53.250;6.514;2022-11-21T14:30:26;29.55;;;18.88;;
55559;SDS011;41414;53.250;6.514;2022-11-21T14:32:56;33.75;;;19.08;;
55559;SDS011;41414;53.250;6.514;2022-11-21T14:35:38;28.77;;;17.98;;
55559;SDS011;41414;53.250;6.514;2022-11-21T14:38:04;33.22;;;19.15;;
55559;SDS011;41414;53.250;6.514;2022-11-21T14:40:30;35.42;;;20.00;;
55559;SDS011;41414;53.250;6.514;2022-11-21T14:43:20;35.60;;;20.55;;
55559;SDS011;41414;53.250;6.514;2022-11-21T14:45:52;33.17;;;19.75;;
55559;SDS011;41414;53.250;6.514;2022-11-21T14:48:23;32.20;;;20.70;;
55559;SDS011;41414;53.250;6.514;2022-11-21T14:50:51;35.20;;;20.50;;
55559;SDS011;41414;53.250;6.514;2022-11-21T14:53:18;35.17;;;20.92;;
55559;SDS011;41414;53.250;6.514;2022-11-21T14:55:48;34.05;;;21.30;;
55559;SDS011;41414;53.250;6.514;2022-11-21T14:58:15;39.47;;;22.65;;
55559;SDS011;41414;53.250;6.514;2022-11-21T15:00:59;37.83;;;21.83;;
55559;SDS011;41414;53.250;6.514;2022-11-21T15:03:27;35.50;;;20.27;;
55559;SDS011;41414;53.250;6.514;2022-11-21T15:06:03;40.95;;;22.50;;
55559;SDS011;41414;53.250;6.514;2022-11-21T15:08:30;39.00;;;23.50;;
55559;SDS011;41414;53.250;6.514;2022-11-21T15:10:57;38.75;;;22.52;;
55559;SDS011;41414;53.250;6.514;2022-11-21T15:13:26;39.75;;;23.73;;
55559;SDS011;41414;53.250;6.514;2022-11-21T15:15:57;41.88;;;23.98;;
55559;SDS011;41414;53.250;6.514;2022-11-21T15:18:26;41.78;;;24.45;;
55559;SDS011;41414;53.250;6.514;2022-11-21T15:20:54;44.08;;;24.98;;
55559;SDS011;41414;53.250;6.514;2022-11-21T15:23:25;40.63;;;23.17;;
55559;SDS011;41414;53.250;6.514;2022-11-21T15:25:52;44.33;;;25.63;;
55559;SDS011;41414;53.250;6.514;2022-11-21T15:28:18;49.47;;;26.52;;
55559;SDS011;41414;53.250;6.514;2022-11-21T15:30:44;46.13;;;27.10;;
55559;SDS011;41414;53.250;6.514;2022-11-21T15:33:11;49.78;;;26.77;;
55559;SDS011;41414;53.250;6.514;2022-11-21T15:35:45;51.08;;;28.27;;
55559;SDS011;41414;53.250;6.514;2022-11-21T15:38:24;50.03;;;27.38;;
55559;SDS011;41414;53.250;6.514;2022-11-21T15:43:36;52.17;;;26.88;;
55559;SDS011;41414;53.250;6.514;2022-11-21T15:46:12;56.30;;;29.08;;
55559;SDS011;41414;53.250;6.514;2022-11-21T15:48:39;52.53;;;28.98;;
55559;SDS011;41414;53.250;6.514;2022-11-21T15:51:08;54.70;;;29.35;;
55559;SDS011;41414;53.250;6.514;2022-11-21T15:53:35;57.90;;;30.45;;
55559;SDS011;41414;53.250;6.514;2022-11-21T15:56:01;52.78;;;29.25;;
55559;SDS011;41414;53.250;6.514;2022-11-21T15:58:27;58.85;;;30.15;;
55559;SDS011;41414;53.250;6.514;2022-11-21T16:00:53;61.97;;;30.52;;
55559;SDS011;41414;53.250;6.514;2022-11-21T16:03:19;60.22;;;31.90;;